Time;durP1;ratioP1;P1;durP2;ratioP2;P2;SDS_P1;SDS_P2;PMS_P1;PMS_P2;Temp;Humidity;BMP_temperature;BMP_pressure;BME280_temperature;BME280_humidity;BME280_pressure;Samples;Min_cycle;Max_cycle;Signal;HPM_P1;HPM_P2
2021/12/01 00:01:35;;;;;;;28.27;4.03;;;;;;;14.82;71.35;98868.69;5029188;28;20029;-95
2021/12/01 00:04:00;;;;;;;25.42;3.67;;;;;;;14.64;71.46;98856.50;5019469;28;20045;-96
2021/12/01 00:06:26;;;;;;;23.35;3.50;;;;;;;14.83;71.13;98852.66;5013972;28;20030;-95
2021/12/01 00:08:51;;;;;;;18.90;3.47;;;;;;;14.52;71.76;98872.84;5020896;28;20440;-96
2021/12/01 00:11:16;;;;;;;25.58;3.28;;;;;;;14.56;71.09;98856.53;5019842;28;20030;-96
2021/12/01 00:13:42;;;;;;;17.65;2.42;;;;;;;14.51;70.86;98857.97;5020334;28;20498;-96
2021/12/01 00:16:08;;;;;;;17.50;2.42;;;;;;;14.60;70.10;98855.19;5020170;28;20034;-96
2021/12/01 00:18:34;;;;;;;15.77;3.20;;;;;;;14.55;70.05;98844.25;5024748;28;20049;-96
2021/12/01 00:20:59;;;;;;;14.98;2.15;;;;;;;14.53;69.39;98843.59;5022922;28;20068;-96
2021/12/01 00:23:25;;;;;;;12.95;2.00;;;;;;;14.23;70.57;98842.50;5029736;28;20042;-96
2021/12/01 00:25:52;;;;;;;14.85;2.97;;;;;;;14.46;69.22;98824.16;5024129;28;20028;-96
2021/12/01 00:28:18;;;;;;;12.35;3.22;;;;;;;14.61;69.19;98821.66;5001988;28;20087;-93
2021/12/01 00:30:44;;;;;;;12.25;2.20;;;;;;;14.67;68.33;98816.56;5015535;28;20038;-95
2021/12/01 00:33:12;;;;;;;15.50;2.75;;;;;;;14.65;68.21;98812.41;5372899;22;20056;-96
2021/12/01 00:35:37;;;;;;;18.27;2.70;;;;;;;14.44;68.88;98808.47;5043247;28;20053;-96
2021/12/01 00:48:19;;;;;;;16.77;2.33;;;;;;;14.64;68.68;98824.81;4998660;28;20042;-96
2021/12/01 00:50:46;;;;;;;12.25;2.47;;;;;;;14.56;68.85;98808.97;5000076;28;20057;-95
2021/12/01 00:53:12;;;;;;;11.63;2.22;;;;;;;14.20;69.65;98804.06;5000025;28;20033;-94
2021/12/01 00:55:38;;;;;;;15.55;2.58;;;;;;;14.34;69.71;98812.31;4996310;28;20029;-94
2021/12/01 00:58:04;;;;;;;16.80;2.72;;;;;;;13.94;70.56;98801.63;4997384;28;20019;-96
2021/12/01 01:00:31;;;;;;;15.95;2.47;;;;;;;14.45;69.33;98802.22;5003324;28;20026;-93
2021/12/01 01:02:58;;;;;;;20.95;2.70;;;;;;;14.37;69.28;98801.41;4993331;28;20149;-92
2021/12/01 01:05:24;;;;;;;16.52;2.35;;;;;;;14.32;69.76;98782.59;4988692;28;20035;-93
2021/12/01 01:07:50;;;;;;;20.98;4.00;;;;;;;14.11;70.93;98785.75;4992379;28;20422;-91
2021/12/01 01:18:31;;;;;;;12.90;2.75;;;;;;;14.43;69.61;98759.28;4992183;28;20061;-93
2021/12/01 01:20:57;;;;;;;27.50;3.33;;;;;;;14.46;69.58;98760.78;4992465;28;20070;-93
2021/12/01 01:23:26;;;;;;;11.90;2.72;;;;;;;14.67;69.49;98755.78;4991922;28;20018;-93
2021/12/01 01:25:52;;;;;;;14.90;2.55;;;;;;;14.71;68.83;98748.34;4998675;28;20038;-93
2021/12/01 01:30:54;;;;;;;14.35;2.83;;;;;;;14.75;68.65;98747.03;5026192;22;20066;-95
2021/12/01 01:33:20;;;;;;;22.77;3.13;;;;;;;14.41;70.11;98744.63;4996300;28;20042;-95
2021/12/01 01:35:46;;;;;;;14.95;2.42;;;;;;;14.72;69.27;98735.97;4994686;28;20026;-95
2021/12/01 01:38:12;;;;;;;13.65;3.08;;;;;;;14.57;69.11;98746.41;4995782;28;20038;-95
2021/12/01 01:40:38;;;;;;;27.30;2.92;;;;;;;14.64;69.13;98737.63;4996723;28;20030;-96
2021/12/01 01:43:05;;;;;;;20.42;2.75;;;;;;;14.77;68.81;98736.25;4997489;28;20254;-95
2021/12/01 01:45:31;;;;;;;14.95;2.78;;;;;;;14.86;68.58;98732.59;5003023;28;20026;-95
2021/12/01 01:48:14;;;;;;;14.07;2.47;;;;;;;14.46;69.23;98726.47;4999382;28;20180;-96
2021/12/01 01:50:42;;;;;;;21.40;2.58;;;;;;;14.87;68.16;98729.78;4999119;28;20022;-95
2021/12/01 01:53:17;;;;;;;20.20;2.90;;;;;;;14.67;68.42;98729.38;4999317;28;20205;-95
2021/12/01 01:55:45;;;;;;;18.15;2.45;;;;;;;14.75;67.84;98730.31;4999434;28;20030;-95
2021/12/01 01:58:12;;;;;;;11.10;2.58;;;;;;;14.59;68.48;98721.50;4996756;28;20065;-96
2021/12/01 02:01:32;;;;;;;12.60;2.35;;;;;;;14.62;68.19;98721.13;4998444;28;20022;-95
2021/12/01 02:03:24;;;;;;;13.65;2.20;;;;;;;14.77;67.96;98708.03;4987501;28;20098;-94
2021/12/01 02:05:52;;;;;;;20.40;3.05;;;;;;;14.68;68.54;98709.88;5021746;22;20077;-95
2021/12/01 02:08:28;;;;;;;11.55;1.95;;;;;;;14.85;67.74;98700.06;5025009;22;20027;-95
2021/12/01 02:10:56;;;;;;;17.40;2.88;;;;;;;14.61;68.39;98693.09;5008599;28;20090;-96
2021/12/01 02:13:22;;;;;;;11.63;2.50;;;;;;;14.75;68.13;98710.03;5206281;22;20027;-96
2021/12/01 02:15:49;;;;;;;12.50;2.65;;;;;;;14.90;67.79;98706.66;4986096;28;20027;-94
2021/12/01 02:18:17;;;;;;;18.48;2.35;;;;;;;14.61;68.68;98713.38;5295256;22;20049;-96
2021/12/01 02:21:01;;;;;;;17.98;2.13;;;;;;;14.59;69.02;98705.66;5001937;28;20045;-96
2021/12/01 02:23:27;;;;;;;10.57;1.73;;;;;;;14.61;68.36;98694.88;4990448;28;20089;-95
2021/12/01 02:25:53;;;;;;;16.40;2.30;;;;;;;14.31;68.98;98692.00;4986919;28;20085;-96
2021/12/01 02:28:19;;;;;;;10.32;2.05;;;;;;;14.47;68.70;98696.41;5226394;23;20969;-96
2021/12/01 02:30:44;;;;;;;21.13;3.22;;;;;;;14.60;68.14;98696.72;5217604;22;20057;-96
2021/12/01 02:33:10;;;;;;;13.18;3.40;;;;;;;14.70;67.72;98703.63;5187501;22;20042;-96
2021/12/01 02:35:36;;;;;;;16.92;2.60;;;;;;;14.45;68.45;98709.78;5009352;28;20065;-95
2021/12/01 02:38:03;;;;;;;16.98;2.35;;;;;;;14.37;68.81;98716.91;5008082;28;20037;-96
2021/12/01 02:40:29;;;;;;;7.97;1.80;;;;;;;14.62;67.77;98699.19;5011691;28;20037;-96
2021/12/01 02:42:54;;;;;;;11.55;2.28;;;;;;;14.54;67.70;98715.03;5003086;28;20034;-96
2021/12/01 02:45:20;;;;;;;12.65;2.15;;;;;;;14.61;67.74;98721.28;5004564;28;20476;-96
2021/12/01 02:47:46;;;;;;;9.02;1.98;;;;;;;14.52;67.85;98711.75;4994678;28;20018;-96
2021/12/01 02:50:12;;;;;;;8.20;1.42;;;;;;;14.51;67.57;98716.19;5004155;28;20026;-96
2021/12/01 02:52:38;;;;;;;9.23;1.58;;;;;;;14.71;67.02;98719.31;5002992;28;20109;-96
2021/12/01 02:55:06;;;;;;;6.38;1.50;;;;;;;14.52;67.46;98720.50;5004811;28;20029;-96
2021/12/01 02:57:52;;;;;;;6.60;1.73;;;;;;;14.70;66.79;98724.75;5003241;28;20408;-96
2021/12/01 03:02:56;;;;;;;10.93;1.40;;;;;;;14.78;66.81;98730.00;5215180;22;20057;-96
2021/12/01 03:05:23;;;;;;;9.50;1.60;;;;;;;14.76;66.39;98731.97;5003137;28;20027;-96
2021/12/01 03:07:49;;;;;;;7.60;1.60;;;;;;;14.79;66.43;98736.91;5004357;28;20488;-96
2021/12/01 03:10:14;;;;;;;6.25;1.60;;;;;;;14.77;66.33;98731.81;5000798;28;20083;-94
2021/12/01 03:12:41;;;;;;;9.63;1.40;;;;;;;14.61;66.71;98729.22;5003779;28;20283;-95
2021/12/01 03:15:11;;;;;;;4.82;1.25;;;;;;;14.62;66.26;98736.16;5004307;28;20503;-96
2021/12/01 03:17:37;;;;;;;7.72;0.98;;;;;;;14.37;65.65;98733.56;5010139;28;20030;-96
2021/12/01 03:20:07;;;;;;;5.28;0.70;;;;;;;14.38;64.81;98716.75;5200398;22;20042;-96
2021/12/01 03:22:33;;;;;;;102.13;30.38;;;;;;;13.81;66.65;98720.31;5010097;28;20026;-96
2021/12/01 03:24:58;;;;;;;3.40;0.77;;;;;;;14.22;65.33;98736.09;5013537;28;20030;-96
2021/12/01 03:45:31;;;;;;;3.20;0.70;;;;;;;13.80;62.63;98745.06;4003844;22;22158;-95
2021/12/01 03:47:56;;;;;;;3.58;0.50;;;;;;;13.77;62.05;98757.75;5220837;22;20046;-96
2021/12/01 03:50:22;;;;;;;3.15;0.47;;;;;;;13.72;61.95;98746.84;5432533;22;20104;-95
2021/12/01 04:08:12;;;;;;;5.78;0.75;;;;;;;13.48;61.26;98744.03;5927512;22;20440;-96
2021/12/01 04:10:38;;;;;;;3.25;0.60;;;;;;;13.79;61.11;98777.69;5016917;28;20061;-96
2021/12/01 04:13:03;;;;;;;7.03;1.15;;;;;;;13.66;61.24;98756.25;5024791;28;20399;-96
2021/12/01 04:15:29;;;;;;;3.13;0.50;;;;;;;13.48;61.20;98773.03;5013331;28;20036;-96
2021/12/01 04:17:54;;;;;;;4.65;0.47;;;;;;;13.78;60.35;98778.66;5015883;28;20026;-93
2021/12/01 04:20:20;;;;;;;2.35;0.28;;;;;;;13.40;60.85;98785.41;5146753;22;20049;-93
2021/12/01 04:22:48;;;;;;;3.95;0.50;;;;;;;13.41;61.01;98784.44;5040275;28;20025;-94
2021/12/01 04:25:14;;;;;;;3.30;0.52;;;;;;;13.45;60.99;98777.84;5030975;28;20087;-96
2021/12/01 04:27:39;;;;;;;4.43;0.70;;;;;;;13.39;61.02;98771.41;5034546;28;20073;-95
2021/12/01 04:30:09;;;;;;;4.95;0.80;;;;;;;13.46;60.94;98788.19;5049037;28;20030;-94
2021/12/01 04:32:35;;;;;;;6.45;0.98;;;;;;;13.58;60.61;98774.72;5046092;28;20045;-95
2021/12/01 04:35:03;;;;;;;3.42;0.52;;;;;;;13.63;60.86;98783.78;5311353;22;20053;-96
2021/12/01 04:37:29;;;;;;;3.58;0.60;;;;;;;13.73;59.90;98777.53;5055191;28;20034;-96
2021/12/01 04:39:55;;;;;;;3.42;0.60;;;;;;;13.88;60.24;98802.25;5054108;28;20119;-96
2021/12/01 04:42:21;;;;;;;2.72;0.73;;;;;;;13.75;60.46;98776.38;5057008;28;20077;-96
2021/12/01 04:44:47;;;;;;;2.33;0.45;;;;;;;13.88;59.82;98784.63;5056928;28;20025;-96
2021/12/01 04:47:14;;;;;;;3.67;1.30;;;;;;;13.81;60.66;98783.63;5051993;28;20017;-95
2021/12/01 04:49:41;;;;;;;1.55;0.50;;;;;;;13.92;60.59;98789.56;5050080;28;20053;-96
2021/12/01 04:52:09;;;;;;;3.42;0.73;;;;;;;13.61;60.94;98791.03;5053380;28;20017;-95
2021/12/01 05:02:20;;;;;;;6.35;0.70;;;;;;;13.19;60.85;98805.09;1425099;22;20053;-96
2021/12/01 05:04:45;;;;;;;4.32;0.47;;;;;;;13.44;60.27;98798.09;5054398;28;20044;-96
2021/12/01 05:07:13;;;;;;;4.85;0.60;;;;;;;13.31;61.28;98803.03;5055336;28;20022;-96
2021/12/01 05:09:39;;;;;;;6.20;0.75;;;;;;;13.52;60.72;98815.72;5055488;28;20016;-96
2021/12/01 05:12:07;;;;;;;5.30;0.60;;;;;;;13.56;60.44;98817.06;5052106;28;20025;-96
2021/12/01 05:14:34;;;;;;;3.53;0.52;;;;;;;13.54;60.59;98820.84;5052954;28;20010;-95
2021/12/01 05:17:00;;;;;;;1.83;0.50;;;;;;;13.71;60.50;98829.63;5056217;28;20010;-96
2021/12/01 05:19:25;;;;;;;1.70;0.40;;;;;;;13.54;60.24;98826.94;5059664;28;20085;-96
2021/12/01 05:21:51;;;;;;;3.42;0.70;;;;;;;13.61;61.10;98840.31;5056958;28;20108;-95
2021/12/01 05:24:18;;;;;;;3.78;0.50;;;;;;;13.35;61.27;98829.84;5264905;22;20109;-95
2021/12/01 05:26:44;;;;;;;2.22;0.40;;;;;;;13.40;61.28;98836.31;5018852;28;20062;-96
2021/12/01 05:29:10;;;;;;;4.20;0.50;;;;;;;13.56;60.26;98846.06;5019800;28;20034;-96
2021/12/01 05:31:36;;;;;;;3.38;0.50;;;;;;;13.72;60.99;98841.81;5017896;28;20038;-96
2021/12/01 05:34:02;;;;;;;2.42;0.50;;;;;;;13.62;60.36;98840.13;5013660;28;20062;-96
2021/12/01 05:36:27;;;;;;;1.15;0.40;;;;;;;13.74;60.40;98853.03;5017886;28;20057;-96
2021/12/01 05:56:59;;;;;;;3.38;0.80;;;;;;;13.24;61.19;98852.06;870139;22;20245;-92
2021/12/01 05:59:25;;;;;;;1.60;0.40;;;;;;;13.20;61.14;98850.72;5057482;28;20060;-96
2021/12/01 06:01:51;;;;;;;3.15;0.60;;;;;;;13.43;61.07;98843.09;5040255;28;20053;-96
2021/12/01 06:04:16;;;;;;;4.05;0.55;;;;;;;13.45;61.37;98860.38;5056373;28;20033;-96
2021/12/01 06:06:42;;;;;;;1.17;0.32;;;;;;;13.15;62.58;98869.66;5039150;28;20029;-95
2021/12/01 06:09:07;;;;;;;2.35;0.70;;;;;;;13.31;62.54;98873.34;5355018;22;20503;-94
2021/12/01 06:11:33;;;;;;;3.15;0.40;;;;;;;13.45;62.12;98872.75;5053345;28;20025;-96
2021/12/01 06:13:59;;;;;;;1.90;0.52;;;;;;;13.39;62.58;98870.72;5276284;22;20013;-96
2021/12/01 06:16:25;;;;;;;3.75;0.40;;;;;;;13.16;63.50;98878.38;5056861;28;20029;-96
2021/12/01 06:18:51;;;;;;;2.08;0.50;;;;;;;13.04;63.04;98875.19;5056905;28;20040;-96
2021/12/01 06:21:17;;;;;;;3.42;0.40;;;;;;;13.21;62.94;98870.81;5141365;22;20056;-96
2021/12/01 06:23:43;;;;;;;2.35;0.60;;;;;;;13.33;63.49;98898.59;5229659;22;20039;-96
2021/12/01 06:31:19;;;;;;;1.73;0.40;;;;;;;12.98;64.71;98900.34;5137406;22;20033;-96
2021/12/01 06:33:45;;;;;;;5.10;1.40;;;;;;;12.86;65.33;98901.59;5056114;28;20060;-95
2021/12/01 06:36:10;;;;;;;3.40;0.50;;;;;;;12.85;66.06;98897.31;5033401;28;20033;-96
2021/12/01 06:38:38;;;;;;;3.03;0.60;;;;;;;12.97;65.99;98905.78;5057021;28;20029;-96
2021/12/01 06:41:05;;;;;;;7.13;0.55;;;;;;;12.97;65.38;98892.59;5059587;28;20048;-96
2021/12/01 06:43:31;;;;;;;2.03;0.30;;;;;;;13.06;65.24;98897.75;5164334;22;20068;-96
2021/12/01 06:48:32;;;;;;;6.55;1.38;;;;;;;12.88;65.63;98900.47;5094828;22;20051;-96
2021/12/01 06:50:57;;;;;;;3.65;0.40;;;;;;;12.82;66.06;98902.91;5057348;28;20056;-96
2021/12/01 06:53:23;;;;;;;1.63;0.30;;;;;;;12.78;65.78;98896.31;5054843;28;20018;-96
2021/12/01 06:58:24;;;;;;;1.65;0.40;;;;;;;12.64;66.38;98902.97;5158321;22;20056;-96
2021/12/01 07:00:49;;;;;;;4.05;0.55;;;;;;;12.77;65.90;98911.25;5439577;22;20061;-95
2021/12/01 07:03:15;;;;;;;2.58;0.38;;;;;;;12.66;66.22;98904.44;5032778;28;20032;-96
2021/12/01 07:05:40;;;;;;;1.75;0.30;;;;;;;12.83;65.79;98912.44;5023920;28;20119;-96
2021/12/01 07:08:06;;;;;;;1.58;0.30;;;;;;;12.72;65.47;98915.31;5022051;28;20033;-95
2021/12/01 07:10:31;;;;;;;1.55;0.20;;;;;;;12.63;65.63;98911.81;5023075;28;20476;-96
2021/12/01 07:12:57;;;;;;;1.35;0.68;;;;;;;12.67;65.86;98907.91;5029792;28;20029;-95
2021/12/01 07:15:23;;;;;;;1.30;0.25;;;;;;;12.56;66.28;98909.00;5031780;28;20029;-95
2021/12/01 07:17:49;;;;;;;1.58;0.40;;;;;;;12.65;65.79;98923.84;5038583;28;20025;-95
2021/12/01 07:20:15;;;;;;;2.70;0.28;;;;;;;12.60;65.75;98910.34;5116236;22;20053;-95
2021/12/01 07:22:44;;;;;;;0.82;0.28;;;;;;;12.80;65.50;98928.56;5055934;28;20025;-95
2021/12/01 07:25:12;;;;;;;2.28;0.30;;;;;;;12.62;65.52;98924.16;5049346;28;20052;-96
2021/12/01 07:27:38;;;;;;;0.38;0.17;;;;;;;12.76;65.67;98945.66;5052290;28;20029;-96
2021/12/01 07:32:39;;;;;;;2.42;0.38;;;;;;;12.47;65.13;98944.13;5077928;22;20046;-96
2021/12/01 07:35:05;;;;;;;4.45;0.20;;;;;;;12.43;66.27;98951.50;5008905;28;20032;-96
2021/12/01 07:37:30;;;;;;;1.73;0.20;;;;;;;12.29;65.96;98952.03;5008663;28;20030;-96
2021/12/01 07:39:56;;;;;;;2.33;0.43;;;;;;;12.53;65.32;98954.03;5007964;28;20038;-95
2021/12/01 07:42:22;;;;;;;1.35;0.20;;;;;;;12.45;65.82;98938.19;5131708;22;20029;-96
2021/12/01 07:44:47;;;;;;;1.15;0.30;;;;;;;12.48;65.62;98957.13;5212182;22;20072;-96
2021/12/01 07:47:13;;;;;;;2.22;0.50;;;;;;;12.43;64.80;98953.31;5055626;22;20061;-94
2021/12/01 07:49:39;;;;;;;3.72;0.30;;;;;;;12.40;64.83;98941.28;5037952;28;20071;-96
2021/12/01 07:52:05;;;;;;;4.72;0.50;;;;;;;12.46;65.33;98951.19;5039333;28;20025;-93
2021/12/01 07:54:32;;;;;;;1.88;0.57;;;;;;;12.39;65.05;98949.31;5021850;28;20034;-95
2021/12/01 07:56:58;;;;;;;2.65;0.50;;;;;;;12.39;64.57;98962.47;5021108;28;20026;-96
2021/12/01 07:59:23;;;;;;;5.50;0.75;;;;;;;12.33;64.75;98965.72;5018837;28;20021;-94
2021/12/01 08:01:49;;;;;;;11.38;1.45;;;;;;;12.29;64.71;98965.19;5003417;28;20022;-91
2021/12/01 08:04:15;;;;;;;6.57;1.23;;;;;;;12.09;65.17;98961.88;5059142;22;20049;-96
2021/12/01 08:06:43;;;;;;;5.57;1.10;;;;;;;12.12;65.21;98966.81;4990056;28;20042;-96
2021/12/01 08:09:10;;;;;;;17.42;1.90;;;;;;;11.56;65.95;98970.47;4992889;28;20086;-96
2021/12/01 08:11:38;;;;;;;4.55;1.08;;;;;;;11.91;64.83;98959.22;4987285;28;20023;-96
2021/12/01 08:14:05;;;;;;;4.60;1.52;;;;;;;12.12;64.74;98979.97;4975770;28;20027;-95
2021/12/01 08:16:30;;;;;;;9.82;1.48;;;;;;;12.02;64.59;98976.59;4960555;28;20028;-94
2021/12/01 08:18:56;;;;;;;9.25;1.92;;;;;;;12.08;64.58;98971.59;4966519;28;20038;-94
2021/12/01 08:21:24;;;;;;;6.70;1.30;;;;;;;12.05;64.14;98974.50;4962868;28;20037;-96
2021/12/01 08:23:53;;;;;;;15.75;1.65;;;;;;;12.06;64.74;98977.94;5051159;22;20050;-96
2021/12/01 08:26:20;;;;;;;6.03;1.50;;;;;;;12.04;64.59;98985.16;4995024;28;20031;-96
2021/12/01 08:28:46;;;;;;;10.15;1.45;;;;;;;11.94;65.38;98979.97;5004935;28;20030;-96
2021/12/01 08:31:17;;;;;;;9.88;1.48;;;;;;;12.05;64.67;98987.66;5003172;28;20026;-96
2021/12/01 08:33:44;;;;;;;16.33;1.80;;;;;;;12.20;64.85;98990.59;5010799;28;20011;-96
2021/12/01 08:36:10;;;;;;;4.97;1.52;;;;;;;12.26;63.47;98979.50;5004400;28;20089;-96
2021/12/01 08:38:38;;;;;;;12.43;3.22;;;;;;;12.23;63.79;98976.31;5212117;22;20030;-96
2021/12/01 08:56:22;;;;;;;9.50;2.35;;;;;;;12.05;62.62;98978.94;4995911;28;20058;-96
2021/12/01 08:58:48;;;;;;;118.25;42.10;;;;;;;12.30;61.56;98988.72;4997944;28;20082;-95
2021/12/01 09:01:13;;;;;;;14.98;1.92;;;;;;;11.87;62.54;98984.97;4992807;28;20030;-96
2021/12/01 09:03:39;;;;;;;8.13;1.60;;;;;;;12.24;61.79;99010.38;5084998;22;20015;-96
2021/12/01 09:06:08;;;;;;;14.30;1.90;;;;;;;12.32;61.86;98985.94;5134556;22;20035;-96
2021/12/01 09:13:44;;;;;;;15.02;2.05;;;;;;;12.16;61.95;98989.22;5829584;22;20110;-95
2021/12/01 09:16:09;;;;;;;13.45;1.85;;;;;;;12.33;61.66;98986.78;5017018;22;20086;-96
2021/12/01 09:18:45;;;;;;;;;;;;;;;;;;;;;
2021/12/01 09:21:13;;;;;;;21.30;1.77;;;;;;;12.24;61.99;98999.88;2246459;22;20230;-86
2021/12/01 09:23:39;;;;;;;10.85;2.30;;;;;;;12.41;61.68;99002.63;5015295;28;20062;-94
2021/12/01 09:26:05;;;;;;;24.38;2.38;;;;;;;12.19;63.17;99011.81;5207174;23;20061;-96
2021/12/01 09:28:30;;;;;;;20.27;3.30;;;;;;;12.25;62.89;99006.75;5024867;28;20089;-96
2021/12/01 09:30:57;;;;;;;16.17;2.03;;;;;;;12.24;62.81;98999.00;5128929;22;20137;-94
2021/12/01 09:33:24;;;;;;;11.60;2.20;;;;;;;12.44;61.62;99008.44;5000976;28;20125;-95
2021/12/01 09:35:51;;;;;;;10.88;2.15;;;;;;;11.88;63.44;98998.94;5020146;28;20033;-94
2021/12/01 09:38:18;;;;;;;10.23;2.13;;;;;;;12.28;62.98;99017.00;5010955;28;20030;-96
2021/12/01 09:40:48;;;;;;;15.13;2.60;;;;;;;12.48;62.40;99009.78;5018656;28;20030;-94
2021/12/01 09:43:15;;;;;;;16.75;2.50;;;;;;;12.64;61.43;99009.09;5011714;28;20072;-91
2021/12/01 09:45:41;;;;;;;13.38;1.80;;;;;;;13.00;60.56;99001.13;5017903;28;20034;-93
2021/12/01 09:48:06;;;;;;;11.73;2.15;;;;;;;12.99;60.15;98991.56;5016856;28;20045;-93
2021/12/01 09:50:33;;;;;;;8.50;1.83;;;;;;;13.14;59.64;98986.56;5014885;28;20034;-93
2021/12/01 09:52:58;;;;;;;10.23;2.17;;;;;;;12.80;59.94;98997.06;5013823;28;20530;-94
2021/12/01 09:55:23;;;;;;;12.00;1.90;;;;;;;12.95;59.89;99016.56;5007968;28;20022;-94
2021/12/01 09:58:17;;;;;;;12.38;2.05;;;;;;;13.15;60.25;99016.38;5013529;28;20153;-94
2021/12/01 10:00:48;;;;;;;9.95;1.48;;;;;;;13.49;58.14;99008.56;5014319;28;20053;-94
2021/12/01 10:03:14;;;;;;;10.60;1.55;;;;;;;14.33;57.45;99011.31;5014863;28;20029;-94
2021/12/01 10:05:46;;;;;;;10.07;1.58;;;;;;;15.60;55.21;99000.16;5005526;28;20030;-94
2021/12/01 10:08:26;;;;;;;9.88;1.60;;;;;;;16.29;51.33;99001.31;5000421;28;20549;-95
2021/12/01 10:10:53;;;;;;;7.60;1.67;;;;;;;16.37;51.18;99006.56;5011923;28;20030;-95
2021/12/01 10:13:27;;;;;;;8.88;2.05;;;;;;;16.14;52.35;99004.72;5005467;28;20026;-94
2021/12/01 10:15:54;;;;;;;14.82;2.70;;;;;;;16.61;50.99;99002.94;4999285;28;20395;-95
2021/12/01 10:18:19;;;;;;;11.40;1.83;;;;;;;16.05;51.78;99006.59;5010205;28;20026;-94
2021/12/01 10:20:57;;;;;;;13.55;1.63;;;;;;;15.75;53.55;99013.50;5010887;28;20439;-95
2021/12/01 10:23:24;;;;;;;14.85;2.40;;;;;;;16.51;51.41;99002.31;5008351;28;20061;-94
2021/12/01 10:25:49;;;;;;;10.10;1.73;;;;;;;16.33;51.51;99013.22;4986650;28;20014;-94
2021/12/01 10:28:36;;;;;;;11.35;1.90;;;;;;;15.97;52.58;99005.81;5008771;28;20026;-94
2021/12/01 10:31:02;;;;;;;11.50;2.30;;;;;;;15.56;53.12;99013.88;5013141;28;20041;-94
2021/12/01 10:33:29;;;;;;;15.10;2.35;;;;;;;14.53;55.21;99012.63;5002614;28;20027;-94
2021/12/01 10:35:57;;;;;;;12.02;1.90;;;;;;;14.56;55.50;99012.34;4996255;28;20054;-92
2021/12/01 10:38:28;;;;;;;8.52;2.45;;;;;;;14.24;56.03;99008.66;5003714;28;20464;-93
2021/12/01 10:41:08;;;;;;;11.73;2.38;;;;;;;14.28;55.97;99011.81;5014347;28;20049;-94
2021/12/01 10:43:36;;;;;;;16.67;2.53;;;;;;;14.04;57.30;99008.13;5010796;28;20165;-93
2021/12/01 10:46:07;;;;;;;5.38;1.73;;;;;;;13.71;58.31;99012.44;5009748;28;20026;-94
2021/12/01 10:48:33;;;;;;;10.10;2.03;;;;;;;13.99;58.72;99014.84;5015284;28;20022;-94
2021/12/01 10:50:59;;;;;;;18.80;2.33;;;;;;;14.08;57.64;99008.63;5008149;28;20029;-94
2021/12/01 10:53:26;;;;;;;13.82;2.13;;;;;;;14.34;57.58;99012.97;5006001;28;20022;-94
2021/12/01 10:56:05;;;;;;;9.98;2.22;;;;;;;14.18;57.93;99003.19;5011446;28;20112;-91
2021/12/01 10:58:39;;;;;;;6.38;1.30;;;;;;;13.86;58.05;99005.59;5009345;28;20034;-92
2021/12/01 11:01:18;;;;;;;11.65;1.48;;;;;;;14.00;58.51;99000.66;4995387;28;20372;-93
2021/12/01 11:03:45;;;;;;;15.15;2.42;;;;;;;13.82;58.39;99003.41;5010115;28;20037;-94
2021/12/01 11:06:23;;;;;;;13.20;2.55;;;;;;;13.75;58.48;99003.22;5003372;28;20403;-94
2021/12/01 11:09:00;;;;;;;11.52;1.67;;;;;;;14.00;58.63;99000.66;5015073;28;20033;-94
2021/12/01 11:11:44;;;;;;;11.05;2.05;;;;;;;14.96;56.82;98992.19;4999436;28;20117;-93
2021/12/01 11:14:12;;;;;;;7.57;1.80;;;;;;;15.74;55.20;99000.44;5005115;28;20121;-93
2021/12/01 11:16:39;;;;;;;7.28;1.88;;;;;;;15.75;54.86;98996.81;5015959;28;20053;-93
2021/12/01 11:19:05;;;;;;;7.95;1.73;;;;;;;16.93;51.98;99001.03;4997961;28;20068;-94
2021/12/01 11:21:31;;;;;;;9.57;1.52;;;;;;;17.79;50.56;98994.31;4996684;28;20057;-95
2021/12/01 11:24:02;;;;;;;11.95;2.97;;;;;;;17.74;51.10;98988.72;5003066;28;20026;-94
2021/12/01 11:26:30;;;;;;;7.07;1.65;;;;;;;19.15;47.72;98981.09;5001560;28;20033;-93
2021/12/01 11:29:01;;;;;;;9.35;2.00;;;;;;;19.29;47.00;98987.34;5001245;28;20043;-94
2021/12/01 11:31:30;;;;;;;9.40;1.77;;;;;;;19.62;46.24;98989.38;5000145;28;20109;-93
2021/12/01 11:33:58;;;;;;;9.55;2.05;;;;;;;20.17;44.99;98992.06;5014606;28;20260;-94
2021/12/01 11:36:30;;;;;;;13.90;2.30;;;;;;;19.98;44.64;98985.66;5005809;28;20052;-93
2021/12/01 11:38:58;;;;;;;4.78;1.55;;;;;;;18.27;45.58;98985.88;5003431;28;20034;-93
2021/12/01 11:41:27;;;;;;;6.38;1.15;;;;;;;18.46;45.93;98983.59;5007394;28;20033;-94
2021/12/01 11:43:53;;;;;;;7.28;1.13;;;;;;;17.58;46.44;98986.28;5012024;28;20048;-94
2021/12/01 11:46:19;;;;;;;4.95;1.67;;;;;;;17.14;48.01;98992.38;5013575;28;20472;-95
2021/12/01 11:48:57;;;;;;;8.82;1.48;;;;;;;16.61;48.46;98985.19;5000002;28;20042;-94
2021/12/01 11:51:38;;;;;;;7.70;1.05;;;;;;;16.04;50.03;98989.06;4993299;28;20030;-93
2021/12/01 11:54:08;;;;;;;4.03;0.90;;;;;;;16.29;49.73;98994.22;5004715;28;20549;-92
2021/12/01 11:56:38;;;;;;;6.50;1.08;;;;;;;15.79;50.94;98996.28;4998624;28;20172;-93
2021/12/01 11:59:18;;;;;;;7.72;1.25;;;;;;;14.74;52.58;98995.53;5007401;28;20446;-94
2021/12/01 12:01:49;;;;;;;8.82;1.88;;;;;;;15.01;52.16;98997.00;4990337;28;20022;-92
2021/12/01 12:04:16;;;;;;;9.48;1.30;;;;;;;14.46;53.23;98985.25;4998856;28;20030;-92
2021/12/01 12:06:59;;;;;;;6.40;1.40;;;;;;;14.41;54.59;98992.81;4975750;28;20033;-92
2021/12/01 12:09:26;;;;;;;5.95;1.30;;;;;;;14.25;54.41;98983.88;5008311;28;20034;-92
2021/12/01 12:12:05;;;;;;;8.70;1.38;;;;;;;14.54;54.55;98979.97;4995612;28;20524;-92
2021/12/01 12:14:36;;;;;;;7.85;1.30;;;;;;;14.22;54.58;98994.78;5008646;28;20025;-92
2021/12/01 12:17:14;;;;;;;7.07;1.80;;;;;;;14.39;55.42;98989.53;5007835;28;20025;-92
2021/12/01 12:20:09;;;;;;;7.88;1.55;;;;;;;13.77;57.19;98988.06;4997149;28;20037;-90
2021/12/01 12:22:39;;;;;;;8.23;1.20;;;;;;;14.13;56.52;98981.72;5010398;28;20069;-91
2021/12/01 12:25:08;;;;;;;10.73;1.17;;;;;;;14.00;56.67;98971.63;4982808;28;20033;-94
2021/12/01 12:27:42;;;;;;;7.47;1.38;;;;;;;13.77;56.75;98958.22;5013651;28;20038;-94
2021/12/01 12:30:10;;;;;;;8.23;1.40;;;;;;;13.78;56.60;98971.22;5016908;28;20037;-92
2021/12/01 12:32:36;;;;;;;5.32;1.13;;;;;;;13.60;56.41;98967.88;5009229;28;20030;-94
2021/12/01 12:35:10;;;;;;;4.35;1.08;;;;;;;14.06;56.25;98968.38;4994050;28;20033;-92
2021/12/01 12:37:36;;;;;;;10.15;1.13;;;;;;;14.27;55.21;98960.78;4999707;28;20034;-96
2021/12/01 12:40:06;;;;;;;5.35;1.20;;;;;;;13.96;55.80;98963.22;5009395;28;20106;-92
2021/12/01 12:42:32;;;;;;;5.72;0.90;;;;;;;14.18;54.78;98960.94;5007937;28;20034;-95
2021/12/01 12:44:58;;;;;;;4.53;1.52;;;;;;;14.14;54.46;98971.03;4994951;28;20030;-93
2021/12/01 12:47:30;;;;;;;3.58;0.80;;;;;;;13.44;55.86;98969.47;4993127;28;20030;-94
2021/12/01 12:49:55;;;;;;;10.35;1.08;;;;;;;14.28;54.61;98972.19;4993368;28;20034;-96
2021/12/01 12:52:31;;;;;;;6.22;0.90;;;;;;;13.89;55.45;98972.78;5006808;28;20065;-94
2021/12/01 12:55:30;;;;;;;6.93;1.38;;;;;;;14.53;54.32;98973.03;5008818;28;20479;-94
2021/12/01 12:58:00;;;;;;;6.20;1.17;;;;;;;14.98;53.38;98969.06;4987379;28;20096;-93
2021/12/01 13:00:25;;;;;;;5.22;0.63;;;;;;;14.42;54.15;98957.53;4993717;28;20026;-93
2021/12/01 13:02:55;;;;;;;2.60;0.60;;;;;;;14.83;53.45;98976.84;5012025;28;20033;-95
2021/12/01 13:05:33;;;;;;;4.72;0.75;;;;;;;14.15;53.87;98966.56;5012350;28;20026;-93
2021/12/01 13:07:59;;;;;;;4.43;1.42;;;;;;;13.99;54.97;98977.91;4997939;28;20027;-94
2021/12/01 13:13:17;;;;;;;4.28;0.77;;;;;;;14.10;54.50;98972.34;5606027;22;20050;-93
2021/12/01 13:15:51;;;;;;;4.15;0.60;;;;;;;14.50;53.77;98978.66;4994578;28;20031;-93
2021/12/01 13:18:19;;;;;;;4.43;0.55;;;;;;;14.32;54.32;98973.53;4985243;28;20463;-94
2021/12/01 13:20:49;;;;;;;4.40;0.70;;;;;;;14.17;54.56;98985.69;4990209;28;20471;-91
2021/12/01 13:23:38;;;;;;;3.42;0.95;;;;;;;14.25;54.74;98986.53;4991070;28;20058;-90
2021/12/01 13:26:06;;;;;;;6.22;0.55;;;;;;;13.76;55.04;98989.03;4978398;28;20049;-92
2021/12/01 13:28:51;;;;;;;2.55;0.52;;;;;;;13.98;55.04;98986.78;4987621;28;20069;-92
2021/12/01 13:31:21;;;;;;;7.65;0.88;;;;;;;13.98;55.77;98970.97;4986945;28;20073;-94
2021/12/01 13:33:55;;;;;;;7.32;1.05;;;;;;;13.75;56.03;98976.03;4971905;28;20037;-96
2021/12/01 13:36:22;;;;;;;5.40;0.82;;;;;;;13.79;56.03;98970.25;4987372;28;20472;-96